createdAt,value
2018-06-25T00:00:02.897Z,61.5
2018-06-25T00:01:03.171Z,61.11
2018-06-25T00:02:03.232Z,61.69
2018-06-25T00:03:03.209Z,61.69
2018-06-25T00:04:03.232Z,61.6
2018-06-25T00:05:02.984Z,61.69
2018-06-25T00:06:03.284Z,61.4
2018-06-25T00:07:03.024Z,61.31
2018-06-25T00:08:03.056Z,61.4
2018-06-25T00:09:03.334Z,61.31
2018-06-25T00:10:03.355Z,61.31
2018-06-25T00:11:03.367Z,61.21
2018-06-25T00:12:03.151Z,61.6
2018-06-25T00:13:03.410Z,61.21
2018-06-25T00:14:03.189Z,61.21
2018-06-25T00:15:03.451Z,61.6
2018-06-25T00:16:03.478Z,61.31
2018-06-25T00:17:03.502Z,61.69
2018-06-25T00:18:03.240Z,61.21
2018-06-25T00:19:03.530Z,61.6
2018-06-25T00:20:03.292Z,61.21
2018-06-25T00:21:03.568Z,61.21
2018-06-25T00:22:03.329Z,61.21
2018-06-25T00:23:03.339Z,61.6
2018-06-25T00:24:03.361Z,61.5
2018-06-25T00:25:03.649Z,61.6
2018-06-25T00:26:03.669Z,61.6
2018-06-25T00:27:03.422Z,61.88
2018-06-25T00:28:03.714Z,61.69
2018-06-25T00:29:03.461Z,62.17
2018-06-25T00:30:03.749Z,61.79
2018-06-25T00:31:03.765Z,61.69
2018-06-25T00:32:03.802Z,61.98
2018-06-25T00:33:03.535Z,62.17
2018-06-25T00:34:03.557Z,61.79
2018-06-25T00:35:03.579Z,61.79
2018-06-25T00:36:03.604Z,61.6
2018-06-25T00:37:03.883Z,61.69
2018-06-25T00:38:03.901Z,61.4
2018-06-25T00:39:03.922Z,61.6
2018-06-25T00:40:03.946Z,61.5
2018-06-25T00:41:03.957Z,61.69
2018-06-25T00:42:03.728Z,61.31
2018-06-25T00:43:03.730Z,61.5
2018-06-25T00:44:04.018Z,61.6
2018-06-25T00:45:03.783Z,61.21
2018-06-25T00:46:04.061Z,61.4
2018-06-25T00:47:04.083Z,61.21
2018-06-25T00:48:04.100Z,61.21
2018-06-25T00:49:03.848Z,61.31
2018-06-25T00:50:04.132Z,61.6
2018-06-25T00:51:03.887Z,61.21
2018-06-25T00:52:03.905Z,61.5
2018-06-25T00:53:03.925Z,61.69
2018-06-25T00:54:04.213Z,61.69
2018-06-25T00:55:03.965Z,61.21
2018-06-25T00:56:03.986Z,61.4
2018-06-25T00:57:04.272Z,61.4
2018-06-25T00:58:04.026Z,61.21
2018-06-25T00:59:04.045Z,61.31
2018-06-25T01:00:04.063Z,61.11
2018-06-25T01:01:04.351Z,61.69
2018-06-25T01:02:04.103Z,61.6
2018-06-25T01:03:04.123Z,61.5
2018-06-25T01:04:04.139Z,61.69
2018-06-25T01:05:04.161Z,61.31
2018-06-25T01:06:04.565Z,61.21
2018-06-25T01:07:04.202Z,61.21
2018-06-25T01:08:04.219Z,61.5
2018-06-25T01:09:04.238Z,61.5
2018-06-25T01:10:04.259Z,61.5
2018-06-25T01:11:04.549Z,61.5
2018-06-25T01:12:04.565Z,62.17
2018-06-25T01:13:04.583Z,61.88
2018-06-25T01:14:04.606Z,61.6
2018-06-25T01:15:04.637Z,61.69
2018-06-25T01:16:04.374Z,61.79
2018-06-25T01:17:04.661Z,62.07
2018-06-25T01:18:04.684Z,61.6
2018-06-25T01:19:04.434Z,61.69
2018-06-25T01:20:04.455Z,61.69
2018-06-25T01:21:04.741Z,61.79
2018-06-25T01:22:04.760Z,61.79
2018-06-25T01:23:04.781Z,61.79
2018-06-25T01:24:04.812Z,61.5
2018-06-25T01:25:04.551Z,61.6
2018-06-25T01:26:04.894Z,61.5
2018-06-25T01:27:04.591Z,61.69
2018-06-25T01:28:04.611Z,61.6
2018-06-25T01:29:04.631Z,62.07
2018-06-25T01:30:04.918Z,62.26
2018-06-25T01:31:04.936Z,62.46
2018-06-25T01:32:04.963Z,62.36
2018-06-25T01:33:04.974Z,61.98
2018-06-25T01:34:04.998Z,62.07
2018-06-25T01:35:05.016Z,61.88
2018-06-25T01:36:05.036Z,62.07
2018-06-25T01:37:05.052Z,62.07
2018-06-25T01:38:05.072Z,62.26
2018-06-25T01:39:04.827Z,61.98
2018-06-25T01:40:04.848Z,61.88
2018-06-25T01:41:04.863Z,62.07
2018-06-25T01:42:04.889Z,61.88
2018-06-25T01:43:05.171Z,62.26
2018-06-25T01:44:05.191Z,62.17
2018-06-25T01:45:04.947Z,62.17
2018-06-25T01:46:05.235Z,62.07
2018-06-25T01:47:05.253Z,62.17
2018-06-25T01:48:05.003Z,62.46
2018-06-25T01:49:05.287Z,62.55
2018-06-25T01:50:05.307Z,62.46
2018-06-25T01:51:05.062Z,61.98
2018-06-25T01:52:05.080Z,61.98
2018-06-25T01:53:05.100Z,62.36
2018-06-25T01:54:05.398Z,62.36
2018-06-25T01:55:05.138Z,62.55
2018-06-25T01:56:05.428Z,62.17
2018-06-25T01:57:05.452Z,63.22
2018-06-25T01:58:05.466Z,62.65
2018-06-25T01:59:05.484Z,62.46
2018-06-25T02:00:05.234Z,63.22
2018-06-25T02:01:05.521Z,62.84
2018-06-25T02:02:05.543Z,62.84
2018-06-25T02:03:05.294Z,62.93
2018-06-25T02:04:05.581Z,62.74
2018-06-25T02:05:05.602Z,62.84
2018-06-25T02:06:05.621Z,62.74
2018-06-25T02:07:05.641Z,62.74
2018-06-25T02:08:05.660Z,62.65
2018-06-25T02:09:05.678Z,62.93
2018-06-25T02:10:05.705Z,62.84
2018-06-25T02:11:05.719Z,63.13
2018-06-25T02:12:05.736Z,62.74
2018-06-25T02:13:05.753Z,63.03
2018-06-25T02:14:05.775Z,62.93
2018-06-25T02:15:05.530Z,62.74
2018-06-25T02:16:05.817Z,62.93
2018-06-25T02:17:05.834Z,62.65
2018-06-25T02:18:05.851Z,62.65
2018-06-25T02:19:05.873Z,62.84
2018-06-25T02:20:05.625Z,62.36
2018-06-25T02:21:05.646Z,63.13
2018-06-25T02:22:05.671Z,62.55
2018-06-25T02:23:05.952Z,62.74
2018-06-25T02:24:05.707Z,63.22
2018-06-25T02:25:05.993Z,62.84
2018-06-25T02:26:05.745Z,63.13
2018-06-25T02:27:05.817Z,62.93
2018-06-25T02:28:05.780Z,62.84
2018-06-25T02:29:06.067Z,62.93
2018-06-25T02:30:05.822Z,62.93
2018-06-25T02:31:06.108Z,63.03
2018-06-25T02:32:06.129Z,63.03
2018-06-25T02:33:06.293Z,63.32
2018-06-25T02:34:06.176Z,63.13
2018-06-25T02:35:06.205Z,63.32
2018-06-25T02:36:05.939Z,63.32
2018-06-25T02:37:06.229Z,63.13
2018-06-25T02:38:06.244Z,63.13
2018-06-25T02:39:06.268Z,63.03
2018-06-25T02:40:06.281Z,63.03
2018-06-25T02:41:06.033Z,63.03
2018-06-25T02:42:06.326Z,63.1
2018-06-25T02:43:06.074Z,63.22
2018-06-25T02:44:06.362Z,63.13
2018-06-25T02:45:06.121Z,63.32
2018-06-25T02:46:06.407Z,62.9
2018-06-25T02:47:06.420Z,63.03
2018-06-25T02:48:06.461Z,63.03
2018-06-25T02:49:06.458Z,63.13
2018-06-25T02:50:06.478Z,63.42
2018-06-25T02:51:06.499Z,63.32
2018-06-25T02:52:06.549Z,63.42
2018-06-25T02:53:06.543Z,63.22
2018-06-25T02:54:06.553Z,63.32
2018-06-25T02:55:06.581Z,63.22
2018-06-25T02:56:06.597Z,63.51
2018-06-25T02:57:06.612Z,63.29
2018-06-25T02:58:06.632Z,63.32
2018-06-25T02:59:06.724Z,63.6
2018-06-25T03:00:06.673Z,63.7
2018-06-25T03:01:06.432Z,63.57
2018-06-25T03:02:06.710Z,63.7
2018-06-25T03:03:06.740Z,63.42
2018-06-25T03:04:06.748Z,63.96
2018-06-25T03:05:06.779Z,63.96
2018-06-25T03:06:06.523Z,64.18
2018-06-25T03:07:06.807Z,64.09
2018-06-25T03:08:06.632Z,63.7
2018-06-25T03:09:06.845Z,63.8
2018-06-25T03:10:06.865Z,63.7
2018-06-25T03:11:06.886Z,64.05
2018-06-25T03:12:06.907Z,64.09
2018-06-25T03:13:06.657Z,63.7
2018-06-25T03:14:06.940Z,64.18
2018-06-25T03:15:06.963Z,64.18
2018-06-25T03:16:06.983Z,64.09
2018-06-25T03:17:07.004Z,63.6
2018-06-25T03:18:07.029Z,63.8
2018-06-25T03:19:07.042Z,63.7
2018-06-25T03:20:07.068Z,63.7
2018-06-25T03:21:07.082Z,63.8
2018-06-25T03:22:07.101Z,63.67
2018-06-25T03:23:07.118Z,63.76
2018-06-25T03:24:06.869Z,63.7
2018-06-25T03:25:06.889Z,64.09
2018-06-25T03:26:06.908Z,63.6
2018-06-25T03:27:07.195Z,64.09
2018-06-25T03:28:07.215Z,63.7
2018-06-25T03:29:07.238Z,63.99
2018-06-25T03:30:07.259Z,63.96
2018-06-25T03:31:07.280Z,63.8
2018-06-25T03:32:07.295Z,63.8
2018-06-25T03:33:07.044Z,63.89
2018-06-25T03:34:07.332Z,63.8
2018-06-25T03:35:07.085Z,63.51
2018-06-25T03:36:07.373Z,63.89
2018-06-25T03:37:07.387Z,63.8
2018-06-25T03:38:07.409Z,63.89
2018-06-25T03:39:07.430Z,63.89
2018-06-25T03:40:07.452Z,63.8
2018-06-25T03:41:07.470Z,64.09
2018-06-25T03:42:07.488Z,64.09
2018-06-25T03:43:07.508Z,63.99
2018-06-25T03:44:07.573Z,63.7
2018-06-25T03:45:07.550Z,63.8
2018-06-25T03:46:07.567Z,63.7
2018-06-25T03:47:07.583Z,63.89
2018-06-25T03:48:07.614Z,63.89
2018-06-25T03:49:07.352Z,64.09
2018-06-25T03:50:07.372Z,64.09
2018-06-25T03:51:07.665Z,64.18
2018-06-25T03:52:07.419Z,64.18
2018-06-25T03:53:07.707Z,63.99
2018-06-25T03:54:07.766Z,64.09
2018-06-25T03:55:07.739Z,64.09
2018-06-25T03:56:07.496Z,64.09
2018-06-25T03:57:07.774Z,64.05
2018-06-25T03:58:07.798Z,63.99
2018-06-25T03:59:07.814Z,64.05
2018-06-25T04:00:07.568Z,63.99
2018-06-25T04:01:07.621Z,63.99
2018-06-25T04:02:07.874Z,63.8
2018-06-25T04:03:07.896Z,63.86
2018-06-25T04:04:07.644Z,63.32
2018-06-25T04:05:07.934Z,63.99
2018-06-25T04:06:07.955Z,63.6
2018-06-25T04:07:07.706Z,63.6
2018-06-25T04:08:07.991Z,63.48
2018-06-25T04:09:07.741Z,63.6
2018-06-25T04:10:08.031Z,63.99
2018-06-25T04:11:08.056Z,63.6
2018-06-25T04:12:08.185Z,63.99
2018-06-25T04:13:08.091Z,64.37
2018-06-25T04:14:07.836Z,64.25
2018-06-25T04:15:08.128Z,63.7
2018-06-25T04:16:07.878Z,63.7
2018-06-25T04:17:07.897Z,63.51
2018-06-25T04:18:08.188Z,63.32
2018-06-25T04:19:08.202Z,63.42
2018-06-25T04:20:08.225Z,63.42
2018-06-25T04:21:07.975Z,63.6
2018-06-25T04:22:08.267Z,63.32
2018-06-25T04:23:08.281Z,63.42
2018-06-25T04:24:08.300Z,63.42
2018-06-25T04:25:08.319Z,63.6
2018-06-25T04:26:08.081Z,63.42
2018-06-25T04:27:08.361Z,63.6
2018-06-25T04:28:08.110Z,63.13
2018-06-25T04:29:08.398Z,63.32
2018-06-25T04:30:08.417Z,63.32
2018-06-25T04:31:08.168Z,63.7
2018-06-25T04:32:08.459Z,63.51
2018-06-25T04:33:08.482Z,63.42
2018-06-25T04:34:08.494Z,63.22
2018-06-25T04:35:08.512Z,63.51
2018-06-25T04:36:08.534Z,63.51
2018-06-25T04:37:08.557Z,63.51
2018-06-25T04:38:08.570Z,63.42
2018-06-25T04:39:08.595Z,63.13
2018-06-25T04:40:08.628Z,62.93
2018-06-25T04:41:08.363Z,63.03
2018-06-25T04:42:08.382Z,62.93
2018-06-25T04:43:08.402Z,63.22
2018-06-25T04:44:08.421Z,63.13
2018-06-25T04:45:08.715Z,62.84
2018-06-25T04:46:08.730Z,63.13
2018-06-25T04:47:08.760Z,63.42
2018-06-25T04:48:08.503Z,63.03
2018-06-25T04:49:08.790Z,63.22
2018-06-25T04:50:08.539Z,63.03
2018-06-25T04:51:08.834Z,63.03
2018-06-25T04:52:08.847Z,63.03
2018-06-25T04:53:08.864Z,63.13
2018-06-25T04:54:08.884Z,63.22
2018-06-25T04:55:08.902Z,63.22
2018-06-25T04:56:08.657Z,63.22
2018-06-25T04:57:08.944Z,62.65
2018-06-25T04:58:08.697Z,62.68
2018-06-25T04:59:08.980Z,63.03
2018-06-25T05:00:08.735Z,62.96
2018-06-25T05:01:08.792Z,63.16
2018-06-25T05:02:09.079Z,63.06
2018-06-25T05:03:09.062Z,62.68
2018-06-25T05:04:09.083Z,62.59
2018-06-25T05:05:08.835Z,62.87
2018-06-25T05:06:08.855Z,62.77
2018-06-25T05:07:08.871Z,63.06
2018-06-25T05:08:08.892Z,62.96
2018-06-25T05:09:09.181Z,62.96
2018-06-25T05:10:08.939Z,63.06
2018-06-25T05:11:09.221Z,62.2
2018-06-25T05:12:08.969Z,62.39
2018-06-25T05:13:09.254Z,62.1
2018-06-25T05:14:09.010Z,62.2
2018-06-25T05:15:09.028Z,62.39
2018-06-25T05:16:09.322Z,62.3
2018-06-25T05:17:09.342Z,62.3
2018-06-25T05:18:09.088Z,62.49
2018-06-25T05:19:09.376Z,62.39
2018-06-25T05:20:09.397Z,61.82
2018-06-25T05:21:09.148Z,62.2
2018-06-25T05:22:09.165Z,61.82
2018-06-25T05:23:09.453Z,62.01
2018-06-25T05:24:09.469Z,62.49
2018-06-25T05:25:09.493Z,62.3
2018-06-25T05:26:09.513Z,62.3
2018-06-25T05:27:09.264Z,62.49
2018-06-25T05:28:09.555Z,62.2
2018-06-25T05:29:09.619Z,61.72
2018-06-25T05:30:09.592Z,62.1
2018-06-25T05:31:09.612Z,62.1
2018-06-25T05:32:09.629Z,61.82
2018-06-25T05:33:09.651Z,62.1
2018-06-25T05:34:09.674Z,62.01
2018-06-25T05:35:09.687Z,62.1
2018-06-25T05:36:09.711Z,62.1
2018-06-25T05:37:09.726Z,62.1
2018-06-25T05:38:09.746Z,62.01
2018-06-25T05:39:09.769Z,62.01
2018-06-25T05:40:09.520Z,62.2
2018-06-25T05:41:09.807Z,62.2
2018-06-25T05:42:09.828Z,62.01
2018-06-25T05:43:09.579Z,61.72
2018-06-25T05:44:09.597Z,61.82
2018-06-25T05:45:09.891Z,62.01
2018-06-25T05:46:09.909Z,61.72
2018-06-25T05:47:09.973Z,61.82
2018-06-25T05:48:09.947Z,61.82
2018-06-25T05:49:09.698Z,62.01
2018-06-25T05:50:09.986Z,61.72
2018-06-25T05:51:09.740Z,61.63
2018-06-25T05:52:10.025Z,61.63
2018-06-25T05:53:10.054Z,61.15
2018-06-25T05:54:10.066Z,61.15
2018-06-25T05:55:10.082Z,61.34
2018-06-25T05:56:10.105Z,61.27
2018-06-25T05:57:10.125Z,61.46
2018-06-25T05:58:10.143Z,61.66
2018-06-25T05:59:10.163Z,61.27
2018-06-25T06:00:10.188Z,61.27
2018-06-25T06:01:10.204Z,61.56
2018-06-25T06:02:10.222Z,61.27
2018-06-25T06:03:10.241Z,61.27
2018-06-25T06:04:10.370Z,61.46
2018-06-25T06:05:10.284Z,61.37
2018-06-25T06:06:10.305Z,61.66
2018-06-25T06:07:10.376Z,61.66
2018-06-25T06:08:10.339Z,61.66
2018-06-25T06:09:10.165Z,61.66
2018-06-25T06:10:10.385Z,61.66
2018-06-25T06:11:10.400Z,61.66
2018-06-25T06:12:10.420Z,61.18
2018-06-25T06:13:10.471Z,61.85
2018-06-25T06:14:10.561Z,61.46
2018-06-25T06:15:10.519Z,61.56
2018-06-25T06:16:10.501Z,61.75
2018-06-25T06:17:10.256Z,61.69
2018-06-25T06:18:10.272Z,61.11
2018-06-25T06:19:10.562Z,61.59
2018-06-25T06:20:10.580Z,60.82
2018-06-25T06:21:10.338Z,61.11
2018-06-25T06:22:10.621Z,61.21
2018-06-25T06:23:10.374Z,61.4
2018-06-25T06:24:10.664Z,60.82
2018-06-25T06:25:10.690Z,60.92
2018-06-25T06:26:10.702Z,61.49
2018-06-25T06:27:10.723Z,61.4
2018-06-25T06:28:10.742Z,61.4
2018-06-25T06:29:10.500Z,61.4
2018-06-25T06:30:10.782Z,61.11
2018-06-25T06:31:10.805Z,61.02
2018-06-25T06:32:10.995Z,61.21
2018-06-25T06:33:10.582Z,60.82
2018-06-25T06:34:10.594Z,61.52
2018-06-25T06:35:10.617Z,60.72
2018-06-25T06:36:10.905Z,60.75
2018-06-25T06:37:10.923Z,60.63
2018-06-25T06:38:10.944Z,60.95
2018-06-25T06:39:10.966Z,60.75
2018-06-25T06:40:11.182Z,60.66
2018-06-25T06:41:11.010Z,60.66
2018-06-25T06:42:11.064Z,60.47
2018-06-25T06:43:11.048Z,60.47
2018-06-25T06:44:10.797Z,60.66
2018-06-25T06:45:10.866Z,60.47
2018-06-25T06:46:11.107Z,60.08
2018-06-25T06:47:11.126Z,60.28
2018-06-25T06:48:11.146Z,60.28
2018-06-25T06:49:11.172Z,60.28
2018-06-25T06:50:11.189Z,60.02
2018-06-25T06:51:11.210Z,59.8
2018-06-25T06:52:10.960Z,59.83
2018-06-25T06:53:11.259Z,59.73
2018-06-25T06:54:11.267Z,59.54
2018-06-25T06:55:11.292Z,59.83
2018-06-25T06:56:11.044Z,59.73
2018-06-25T06:57:11.064Z,59.54
2018-06-25T06:58:11.360Z,59.34
2018-06-25T06:59:11.370Z,59.54
2018-06-25T07:00:11.391Z,59.64
2018-06-25T07:01:11.419Z,59.06
2018-06-25T07:02:11.433Z,59.34
2018-06-25T07:03:11.456Z,59.25
2018-06-25T07:04:11.209Z,59.34
2018-06-25T07:05:11.226Z,59.34
2018-06-25T07:06:11.518Z,59.34
2018-06-25T07:07:11.269Z,59.44
2018-06-25T07:08:11.561Z,59.66
2018-06-25T07:09:11.588Z,59.57
2018-06-25T07:10:11.640Z,58.89
2018-06-25T07:11:11.627Z,58.99
2018-06-25T07:12:11.642Z,58.99
2018-06-25T07:13:11.663Z,59.19
2018-06-25T07:14:11.683Z,58.99
2018-06-25T07:15:11.702Z,58.99
2018-06-25T07:16:11.723Z,59.28
2018-06-25T07:17:11.480Z,59.19
2018-06-25T07:18:11.763Z,58.99
2018-06-25T07:19:11.789Z,58.89
2018-06-25T07:20:11.807Z,59.09
2018-06-25T07:21:11.573Z,59.09
2018-06-25T07:22:11.849Z,58.99
2018-06-25T07:23:11.871Z,59.38
2018-06-25T07:24:11.628Z,59.47
2018-06-25T07:25:11.914Z,59.47
2018-06-25T07:26:11.932Z,59.47
2018-06-25T07:27:11.959Z,59.28
2018-06-25T07:28:11.972Z,59.28
2018-06-25T07:29:12.079Z,59.28
2018-06-25T07:30:12.030Z,59.28
2018-06-25T07:31:12.035Z,59.47
2018-06-25T07:32:12.058Z,59.28
2018-06-25T07:33:12.078Z,59.28
2018-06-25T07:34:12.099Z,59.31
2018-06-25T07:35:11.861Z,59.31
2018-06-25T07:36:12.139Z,59.22
2018-06-25T07:37:12.162Z,59.31
2018-06-25T07:38:12.190Z,59.41
2018-06-25T07:39:11.939Z,59.12
2018-06-25T07:40:12.228Z,59.02
2018-06-25T07:41:12.245Z,59.05
2018-06-25T07:42:12.272Z,59.15
2018-06-25T07:43:12.301Z,58.76
2018-06-25T07:44:12.308Z,58.95
2018-06-25T07:45:12.329Z,58.47
2018-06-25T07:46:12.355Z,58.37
2018-06-25T07:47:12.597Z,58.09
2018-06-25T07:48:12.126Z,57.64
2018-06-25T07:49:12.420Z,57.45
2018-06-25T07:50:12.439Z,57.73
2018-06-25T07:51:12.461Z,57.54
2018-06-25T07:52:12.485Z,56.96
2018-06-25T07:53:12.581Z,56.96
2018-06-25T07:54:12.527Z,56.96
2018-06-25T07:55:12.540Z,56.58
2018-06-25T07:56:12.570Z,57.45
2018-06-25T07:57:12.591Z,56.87
2018-06-25T07:58:12.603Z,56.2
2018-06-25T07:59:12.632Z,56.38
2018-06-25T08:00:12.397Z,56.32
2018-06-25T08:01:12.669Z,56.22
2018-06-25T08:02:12.425Z,55.55
2018-06-25T08:03:12.453Z,55.35
2018-06-25T08:04:12.735Z,55.35
2018-06-25T08:05:12.758Z,55.93
2018-06-25T08:06:12.514Z,55.65
2018-06-25T08:07:12.806Z,55.35
2018-06-25T08:08:12.831Z,55.35
2018-06-25T08:09:12.858Z,54.97
2018-06-25T08:10:13.041Z,54.78
2018-06-25T08:11:12.890Z,54.87
2018-06-25T08:12:12.958Z,54.68
2018-06-25T08:13:12.930Z,54.97
2018-06-25T08:14:12.950Z,54.1
2018-06-25T08:15:12.973Z,54.22
2018-06-25T08:16:13.081Z,54.22
2018-06-25T08:17:13.014Z,54.42
2018-06-25T08:18:13.040Z,54.32
2018-06-25T08:19:13.067Z,54.03
2018-06-25T08:20:12.821Z,54.03
2018-06-25T08:21:13.105Z,53.36
2018-06-25T08:22:13.128Z,54.03
2018-06-25T08:23:13.148Z,53.36
2018-06-25T08:24:13.171Z,53.55
2018-06-25T08:25:13.195Z,53.07
2018-06-25T08:26:13.211Z,53.55
2018-06-25T08:27:13.238Z,53.19
2018-06-25T08:28:12.989Z,53.36
2018-06-25T08:29:13.278Z,52.91
2018-06-25T08:30:13.462Z,53
2018-06-25T08:31:13.054Z,52.61
2018-06-25T08:32:13.347Z,52.61
2018-06-25T08:33:13.098Z,52.04
2018-06-25T08:34:13.623Z,51.65
2018-06-25T08:35:13.146Z,52.16
2018-06-25T08:36:13.432Z,51.77
2018-06-25T08:37:13.191Z,52.06
2018-06-25T08:38:13.472Z,51.58
2018-06-25T08:39:13.231Z,51.58
2018-06-25T08:40:13.580Z,51.39
2018-06-25T08:41:13.745Z,51.61
2018-06-25T08:42:13.565Z,51.12
2018-06-25T08:43:13.319Z,50.64
2018-06-25T08:44:13.608Z,50.35
2018-06-25T08:45:13.641Z,50.35
2018-06-25T08:46:13.652Z,50.54
2018-06-25T08:47:13.679Z,50.16
2018-06-25T08:48:13.702Z,49.96
2018-06-25T08:49:13.453Z,50.06
2018-06-25T08:50:13.747Z,49.77
2018-06-25T08:51:13.767Z,49.96
2018-06-25T08:52:13.521Z,50.06
2018-06-25T08:53:13.555Z,49.87
2018-06-25T08:54:13.848Z,50.26
2018-06-25T08:55:13.595Z,49.96
2018-06-25T08:56:13.939Z,49.77
2018-06-25T08:57:13.633Z,49.77
2018-06-25T08:58:13.935Z,49.87
2018-06-25T08:59:13.677Z,49.58
2018-06-25T09:00:13.966Z,49.32
2018-06-25T09:01:13.736Z,49.8
2018-06-25T09:02:14.011Z,49.7
2018-06-25T09:03:14.228Z,49.7
2018-06-25T09:04:14.062Z,49.32
2018-06-25T09:05:13.831Z,49.32
2018-06-25T09:06:14.111Z,49.02
2018-06-25T09:07:14.125Z,49.02
2018-06-25T09:08:14.151Z,48.74
2018-06-25T09:09:14.174Z,49.12
2018-06-25T09:10:14.249Z,48.64
2018-06-25T09:11:14.220Z,48.64
2018-06-25T09:12:14.241Z,48.54
2018-06-25T09:13:14.000Z,48.16
2018-06-25T09:14:14.284Z,48.35
2018-06-25T09:15:14.581Z,48.06
2018-06-25T09:16:14.333Z,47.96
2018-06-25T09:17:14.353Z,47.38
2018-06-25T09:18:14.374Z,47.96
2018-06-25T09:19:14.403Z,47.09
2018-06-25T09:20:14.156Z,47.5
2018-06-25T09:21:14.181Z,47.02
2018-06-25T09:22:14.627Z,46.73
2018-06-25T09:23:14.495Z,46.15
2018-06-25T09:24:14.516Z,46.23
2018-06-25T09:25:14.542Z,46.06
2018-06-25T09:26:14.562Z,45.96
2018-06-25T09:27:14.318Z,46.03
2018-06-25T09:28:14.340Z,45.76
2018-06-25T09:29:14.363Z,45.67
2018-06-25T09:30:14.655Z,45.57
2018-06-25T09:31:14.673Z,45.48
2018-06-25T09:32:14.699Z,45.18
2018-06-25T09:33:14.467Z,45.18
2018-06-25T09:34:14.752Z,45.09
2018-06-25T09:35:14.797Z,44.9
2018-06-25T09:36:14.796Z,44.92
2018-06-25T09:37:14.821Z,44.73
2018-06-25T09:38:14.840Z,44.53
2018-06-25T09:39:14.861Z,44.43
2018-06-25T09:40:14.884Z,44.53
2018-06-25T09:41:15.190Z,44.56
2018-06-25T09:42:14.932Z,44.15
2018-06-25T09:43:14.958Z,43.78
2018-06-25T09:44:14.982Z,43.88
2018-06-25T09:45:15.010Z,44.07
2018-06-25T09:46:15.024Z,43.68
2018-06-25T09:47:14.783Z,44.19
2018-06-25T09:48:15.075Z,43.8
2018-06-25T09:49:15.098Z,43.61
2018-06-25T09:50:15.120Z,43.71
2018-06-25T09:51:15.142Z,43.61
2018-06-25T09:52:15.164Z,43.34
2018-06-25T09:53:15.188Z,42.76
2018-06-25T09:54:15.220Z,42.47
2018-06-25T09:55:15.393Z,42.18
2018-06-25T09:56:15.262Z,42.18
2018-06-25T09:57:15.284Z,42.47
2018-06-25T09:58:15.308Z,42.18
2018-06-25T09:59:15.351Z,42.08
2018-06-25T10:00:15.090Z,42.18
2018-06-25T10:01:15.115Z,42.08
2018-06-25T10:02:15.414Z,41.89
2018-06-25T10:03:15.426Z,42.08
2018-06-25T10:04:15.186Z,42.08
2018-06-25T10:05:15.482Z,41.91
2018-06-25T10:06:15.233Z,42.1
2018-06-25T10:07:15.554Z,41.62
2018-06-25T10:08:15.551Z,41.24
2018-06-25T10:09:15.306Z,41.62
2018-06-25T10:10:15.333Z,41.52
2018-06-25T10:11:15.619Z,41.42
2018-06-25T10:12:15.648Z,41.06
2018-06-25T10:13:15.401Z,41.35
2018-06-25T10:14:15.691Z,41.55
2018-06-25T10:15:15.722Z,41.45
2018-06-25T10:16:15.741Z,41.25
2018-06-25T10:17:15.499Z,41.35
2018-06-25T10:18:15.794Z,41.25
2018-06-25T10:19:15.551Z,41.25
2018-06-25T10:20:15.840Z,41.06
2018-06-25T10:21:15.983Z,40.99
2018-06-25T10:22:15.620Z,40.21
2018-06-25T10:23:15.649Z,40.31
2018-06-25T10:24:15.940Z,40.79
2018-06-25T10:25:15.695Z,40.31
2018-06-25T10:26:15.989Z,40.31
2018-06-25T10:27:16.013Z,40.61
2018-06-25T10:28:16.038Z,40.33
2018-06-25T10:29:16.059Z,40.42
2018-06-25T10:30:16.085Z,40.34
2018-06-25T10:31:16.113Z,40.23
2018-06-25T10:32:16.139Z,40.44
2018-06-25T10:33:16.157Z,40.34
2018-06-25T10:34:15.917Z,39.76
2018-06-25T10:35:16.217Z,39.59
2018-06-25T10:36:16.233Z,39.39
2018-06-25T10:37:15.994Z,38.83
2018-06-25T10:38:16.288Z,38.34
2018-06-25T10:39:16.308Z,38.15
2018-06-25T10:40:16.334Z,38.06
2018-06-25T10:41:16.361Z,37.47
2018-06-25T10:42:16.500Z,37.01
2018-06-25T10:43:16.416Z,36.71
2018-06-25T10:44:16.439Z,36.91
2018-06-25T10:45:16.195Z,37.1
2018-06-25T10:46:16.219Z,37.3
2018-06-25T10:47:16.513Z,37.78
2018-06-25T10:48:16.540Z,38.39
2018-06-25T10:49:16.568Z,38.09
2018-06-25T10:50:16.591Z,37.41
2018-06-25T10:51:16.399Z,37.6
2018-06-25T10:52:16.642Z,36.94
2018-06-25T10:53:16.400Z,37.62
2018-06-25T10:54:16.427Z,37.62
2018-06-25T10:55:16.725Z,37.43
2018-06-25T10:56:16.746Z,37.52
2018-06-25T10:57:16.778Z,37.04
2018-06-25T10:58:16.798Z,37.14
2018-06-25T10:59:16.562Z,37.24
2018-06-25T11:00:17.541Z,36.96
2018-06-25T11:01:17.016Z,37.16
2018-06-25T11:02:16.904Z,36.87
2018-06-25T11:03:16.930Z,36.96
2018-06-25T11:04:16.964Z,36.57
2018-06-25T11:05:16.983Z,36.08
2018-06-25T11:06:17.006Z,36.1
2018-06-25T11:07:17.447Z,35.91
2018-06-25T11:08:17.062Z,36.1
2018-06-25T11:09:17.090Z,36.2
2018-06-25T11:10:17.113Z,36.4
2018-06-25T11:11:16.872Z,35.83
2018-06-25T11:12:16.901Z,35.93
2018-06-25T11:13:17.194Z,35.83
2018-06-25T11:14:17.222Z,35.73
2018-06-25T11:15:17.250Z,35.36
2018-06-25T11:16:17.275Z,34.68
2018-06-25T11:17:17.303Z,34.68
2018-06-25T11:18:17.331Z,34.09
2018-06-25T11:19:17.360Z,33.31
2018-06-25T11:20:17.380Z,33.12
2018-06-25T11:21:17.411Z,32.82
2018-06-25T11:22:17.439Z,32.73
2018-06-25T11:23:17.463Z,32.53
2018-06-25T11:24:17.491Z,32.15
2018-06-25T11:25:17.516Z,32.05
2018-06-25T11:26:17.276Z,32.82
2018-06-25T11:27:17.704Z,33.61
2018-06-25T11:28:17.603Z,33.9
2018-06-25T11:29:17.628Z,33.92
2018-06-25T11:30:17.435Z,33.43
2018-06-25T11:31:17.678Z,33.33
2018-06-25T11:32:17.706Z,32.76
2018-06-25T11:33:17.733Z,32.47
2018-06-25T11:34:17.762Z,32.18
2018-06-25T11:35:17.790Z,31.49
2018-06-25T11:36:17.550Z,30.62
2018-06-25T11:37:17.575Z,30.13
2018-06-25T11:38:17.877Z,30.13
2018-06-25T11:39:17.634Z,30.05
2018-06-25T11:40:17.941Z,31.02
2018-06-25T11:41:17.955Z,31.6
2018-06-25T11:42:17.718Z,31.6
2018-06-25T11:43:18.013Z,31.8
2018-06-25T11:44:18.037Z,31.9
2018-06-25T11:45:17.800Z,31.82
2018-06-25T11:46:18.097Z,31.62
2018-06-25T11:47:18.125Z,31.72
2018-06-25T11:48:17.884Z,31.62
2018-06-25T11:49:18.180Z,31.62
2018-06-25T11:50:17.940Z,31.43
2018-06-25T11:51:18.241Z,31.04
2018-06-25T11:52:18.273Z,31.25
2018-06-25T11:53:18.305Z,30.86
2018-06-25T11:54:18.320Z,31.05
2018-06-25T11:55:18.350Z,31.15
2018-06-25T11:56:18.379Z,31.25
2018-06-25T11:57:18.139Z,30.87
2018-06-25T11:58:18.438Z,30.87
2018-06-25T11:59:18.196Z,30.68
2018-06-25T12:00:18.497Z,30.58
2018-06-25T12:01:18.517Z,30.1
2018-06-25T12:02:18.553Z,30
2018-06-25T12:03:19.159Z,29.81
2018-06-25T12:04:18.607Z,29.13
2018-06-25T12:05:18.641Z,29.71
2018-06-25T12:06:18.662Z,30
2018-06-25T12:07:18.720Z,29.91
2018-06-25T12:08:18.456Z,30
2018-06-25T12:09:18.749Z,30
2018-06-25T12:10:18.513Z,29.63
2018-06-25T12:11:18.806Z,29.24
2018-06-25T12:12:18.904Z,29.44
2018-06-25T12:13:18.868Z,29.14
2018-06-25T12:14:19.034Z,29.35
2018-06-25T12:15:18.924Z,28.77
2018-06-25T12:16:18.957Z,28.96
2018-06-25T12:17:18.980Z,28.88
2018-06-25T12:18:19.022Z,29.17
2018-06-25T12:19:19.040Z,28.78
2018-06-25T12:20:19.072Z,28.88
2018-06-25T12:21:19.099Z,28.09
2018-06-25T12:22:19.127Z,28.29
2018-06-25T12:23:19.159Z,28.68
2018-06-25T12:24:19.191Z,28.68
2018-06-25T12:25:19.212Z,28.39
2018-06-25T12:26:19.255Z,28.11
2018-06-25T12:27:19.282Z,27.42
2018-06-25T12:28:19.306Z,27.42
2018-06-25T12:29:19.335Z,27.23
2018-06-25T12:30:19.363Z,27.34
2018-06-25T12:31:19.396Z,27.44
2018-06-25T12:32:19.421Z,27.44
2018-06-25T12:33:19.455Z,27.44
2018-06-25T12:34:19.483Z,26.67
2018-06-25T12:35:19.514Z,26.86
2018-06-25T12:36:19.277Z,26.56
2018-06-25T12:37:19.576Z,26.78
2018-06-25T12:38:19.336Z,26.78
2018-06-25T12:39:19.634Z,26.58
2018-06-25T12:40:19.668Z,26.09
2018-06-25T12:41:19.697Z,25.81
2018-06-25T12:42:19.732Z,25.42
2018-06-25T12:43:19.760Z,25.51
2018-06-25T12:44:19.829Z,24.93
2018-06-25T12:45:19.819Z,24.44
2018-06-25T12:46:19.580Z,24.46
2018-06-25T12:47:19.889Z,24.26
2018-06-25T12:48:19.978Z,24.46
2018-06-25T12:49:19.941Z,24.46
2018-06-25T12:50:19.973Z,24.55
2018-06-25T12:51:19.999Z,25.04
2018-06-25T12:52:20.031Z,24.75
2018-06-25T12:53:19.795Z,24.75
2018-06-25T12:54:20.092Z,24.46
2018-06-25T12:55:19.858Z,24.95
2018-06-25T12:56:20.160Z,24.65